createdAt,value
2018-09-29T00:01:12.319Z,62.19
2018-09-29T00:03:42.494Z,61.59
2018-09-29T00:06:10.676Z,62.39
2018-09-29T00:08:39.397Z,61.82
2018-09-29T00:11:06.896Z,61.97
2018-09-29T00:13:34.195Z,61.19
2018-09-29T00:16:03.567Z,61.65
2018-09-29T00:18:30.497Z,61.98
2018-09-29T00:20:58.780Z,63.41
2018-09-29T00:23:25.861Z,63.24
2018-09-29T00:25:54.112Z,63.61
2018-09-29T00:28:22.778Z,63.46
2018-09-29T00:30:52.397Z,62.89
2018-09-29T00:35:50.990Z,62.22
2018-09-29T00:38:17.485Z,61.77
2018-09-29T00:40:44.026Z,61.94
2018-09-29T00:43:10.602Z,62.40
2018-09-29T00:45:37.182Z,62.37
2018-09-29T00:48:03.795Z,62.68
2018-09-29T00:50:30.344Z,62.96
2018-09-29T00:52:56.852Z,62.19
2018-09-29T00:55:23.413Z,61.38
2018-09-29T00:57:50.533Z,63.09
2018-09-29T01:00:17.204Z,63.06
2018-09-29T01:02:43.761Z,62.88
2018-09-29T01:05:10.551Z,62.96
2018-09-29T01:07:37.077Z,62.04
2018-09-29T01:10:03.626Z,61.98
2018-09-29T01:12:30.245Z,61.80
2018-09-29T01:14:56.779Z,61.02
2018-09-29T01:17:23.414Z,61.82
2018-09-29T01:19:49.950Z,61.87
2018-09-29T01:22:16.501Z,62.23
2018-09-29T01:24:43.093Z,62.63
2018-09-29T01:27:10.722Z,61.59
2018-09-29T01:29:37.355Z,62.35
2018-09-29T01:32:03.933Z,62.06
2018-09-29T01:34:30.601Z,61.59
2018-09-29T01:36:57.125Z,61.72
2018-09-29T01:39:23.730Z,62.65
2018-09-29T01:41:50.258Z,62.88
2018-09-29T01:44:16.814Z,63.41
2018-09-29T01:46:43.317Z,63.08
2018-09-29T01:49:10.911Z,62.02
2018-09-29T01:51:37.402Z,62.22
2018-09-29T01:54:03.953Z,62.69
2018-09-29T01:56:30.492Z,62.78
2018-09-29T01:58:57.093Z,63.49
2018-09-29T02:01:24.242Z,62.33
2018-09-29T02:03:50.778Z,62.06
2018-09-29T02:06:17.304Z,62.57
2018-09-29T02:08:43.813Z,63.51
2018-09-29T02:11:11.356Z,63.55
2018-09-29T02:13:37.792Z,64.07
2018-09-29T02:16:04.296Z,64.15
2018-09-29T02:18:30.843Z,63.45
2018-09-29T02:20:57.352Z,63.27
2018-09-29T02:23:23.853Z,63.89
2018-09-29T02:25:50.332Z,63.50
2018-09-29T02:28:16.785Z,64.05
2018-09-29T02:30:43.310Z,64.71
2018-09-29T02:33:09.805Z,64.19
2018-09-29T02:35:36.266Z,63.66
2018-09-29T02:38:02.725Z,61.74
2018-09-29T02:40:29.335Z,62.96
2018-09-29T02:42:55.826Z,63.18
2018-09-29T02:45:22.262Z,63.77
2018-09-29T02:47:48.877Z,64.16
2018-09-29T02:50:15.525Z,63.33
2018-09-29T02:52:42.622Z,62.45
2018-09-29T02:55:09.140Z,63.45
2018-09-29T02:57:35.593Z,62.97
2018-09-29T03:00:02.169Z,63.04
2018-09-29T03:02:28.753Z,63.49
2018-09-29T03:04:55.229Z,63.55
2018-09-29T03:07:21.824Z,62.62
2018-09-29T03:09:48.480Z,63.00
2018-09-29T03:12:14.969Z,62.68
2018-09-29T03:14:41.481Z,63.34
2018-09-29T03:17:07.971Z,62.47
2018-09-29T03:19:34.504Z,61.20
2018-09-29T03:22:00.990Z,61.64
2018-09-29T03:24:28.103Z,61.56
2018-09-29T03:26:54.608Z,61.74
2018-09-29T03:29:21.132Z,61.67
2018-09-29T03:31:47.735Z,63.10
2018-09-29T03:34:15.320Z,62.97
2018-09-29T03:36:41.911Z,63.08
2018-09-29T03:39:09.025Z,63.69
2018-09-29T03:41:36.154Z,63.17
2018-09-29T03:44:03.459Z,62.82
2018-09-29T03:46:30.032Z,63.56
2018-09-29T03:48:57.333Z,65.52
2018-09-29T03:51:25.490Z,64.86
2018-09-29T03:53:51.988Z,64.47
2018-09-29T03:56:19.473Z,64.29
2018-09-29T03:58:45.983Z,63.46
2018-09-29T04:01:13.156Z,63.21
2018-09-29T04:03:39.755Z,62.86
2018-09-29T04:06:06.231Z,63.46
2018-09-29T04:08:32.722Z,64.84
2018-09-29T04:10:59.430Z,64.81
2018-09-29T04:13:26.037Z,64.44
2018-09-29T04:15:52.530Z,63.67
2018-09-29T04:18:19.115Z,63.88
2018-09-29T04:20:45.823Z,64.36
2018-09-29T04:23:15.078Z,63.64
2018-09-29T04:25:43.151Z,63.64
2018-09-29T04:28:10.676Z,64.91
2018-09-29T04:30:37.202Z,65.00
2018-09-29T04:33:03.661Z,65.03
2018-09-29T04:35:30.871Z,66.40
2018-09-29T04:37:59.281Z,64.72
2018-09-29T04:40:25.857Z,64.00
2018-09-29T04:42:53.343Z,64.53
2018-09-29T04:45:19.907Z,65.17
2018-09-29T04:47:47.244Z,64.74
2018-09-29T04:50:15.821Z,63.86
2018-09-29T04:52:42.956Z,64.12
2018-09-29T04:55:10.182Z,64.71
2018-09-29T04:57:36.820Z,64.71
2018-09-29T05:00:03.402Z,63.52
2018-09-29T05:02:30.570Z,63.47
2018-09-29T05:04:57.178Z,63.91
2018-09-29T05:07:24.321Z,64.41
2018-09-29T05:09:51.106Z,64.51
2018-09-29T05:12:17.639Z,64.35
2018-09-29T05:14:44.296Z,64.28
2018-09-29T05:17:10.796Z,63.65
2018-09-29T05:19:37.270Z,63.73
2018-09-29T05:22:04.786Z,63.77
2018-09-29T05:24:31.283Z,63.91
2018-09-29T05:26:57.752Z,63.85
2018-09-29T05:29:25.100Z,63.46
2018-09-29T05:31:51.630Z,63.44
2018-09-29T05:34:18.359Z,63.78
2018-09-29T05:36:47.702Z,64.08
2018-09-29T05:39:14.356Z,63.92
2018-09-29T05:41:41.520Z,63.94
2018-09-29T05:44:10.206Z,64.02
2018-09-29T05:46:38.060Z,63.34
2018-09-29T05:49:04.574Z,62.67
2018-09-29T05:51:31.872Z,62.54
2018-09-29T05:53:58.586Z,61.62
2018-09-29T05:56:26.197Z,58.46
2018-09-29T05:58:52.909Z,59.72
2018-09-29T06:01:20.201Z,58.98
2018-09-29T06:03:46.980Z,57.18
2018-09-29T06:06:14.058Z,59.25
2018-09-29T06:08:41.220Z,58.85
2018-09-29T06:11:08.551Z,57.73
2018-09-29T06:13:35.412Z,56.65
2018-09-29T06:16:02.337Z,55.89
2018-09-29T06:18:29.553Z,57.83
2018-09-29T06:20:56.095Z,55.58
2018-09-29T06:23:23.379Z,55.91
2018-09-29T06:25:50.164Z,55.62
2018-09-29T06:28:17.631Z,56.06
2018-09-29T06:30:44.363Z,56.58
2018-09-29T06:33:11.674Z,55.27
2018-09-29T06:35:38.186Z,53.25
2018-09-29T06:38:04.674Z,54.53
2018-09-29T06:40:31.852Z,52.60
2018-09-29T06:43:02.859Z,53.81
2018-09-29T06:45:30.372Z,50.98
2018-09-29T06:47:56.970Z,50.34
2018-09-29T06:50:24.601Z,51.47
2018-09-29T06:52:51.844Z,50.09
2018-09-29T06:55:18.987Z,51.22
2018-09-29T06:57:45.621Z,50.76
2018-09-29T07:00:12.636Z,49.46
2018-09-29T07:02:40.271Z,49.94
2018-09-29T07:05:07.602Z,50.51
2018-09-29T07:07:34.125Z,48.98
2018-09-29T07:10:00.762Z,48.87
2018-09-29T07:12:27.362Z,48.68
2018-09-29T07:14:54.259Z,47.15
2018-09-29T07:17:21.047Z,46.84
2018-09-29T07:19:47.656Z,46.71
2018-09-29T07:22:14.150Z,46.77
2018-09-29T07:24:40.739Z,48.21
2018-09-29T07:27:08.238Z,48.08
2018-09-29T07:29:35.284Z,45.60
2018-09-29T07:32:03.059Z,45.92
2018-09-29T07:34:29.544Z,44.73
2018-09-29T07:36:55.987Z,46.54
2018-09-29T07:39:22.458Z,47.85
2018-09-29T07:41:52.158Z,46.96
2018-09-29T07:44:19.336Z,44.56
2018-09-29T07:46:46.907Z,44.16
2018-09-29T07:49:14.515Z,46.16
2018-09-29T07:51:41.219Z,46.02
2018-09-29T07:54:07.918Z,45.19
2018-09-29T07:56:34.429Z,43.77
2018-09-29T07:59:00.898Z,43.73
2018-09-29T08:01:28.386Z,45.98
2018-09-29T08:03:54.939Z,47.98
2018-09-29T08:06:25.847Z,44.37
2018-09-29T08:08:53.904Z,44.83
2018-09-29T08:11:20.479Z,44.76
2018-09-29T08:13:48.066Z,45.03
2018-09-29T08:16:15.629Z,44.19
2018-09-29T08:18:43.000Z,43.99
2018-09-29T08:21:09.469Z,43.72
2018-09-29T08:23:36.405Z,44.09
2018-09-29T08:26:04.541Z,45.26
2018-09-29T08:28:31.053Z,45.65
2018-09-29T08:30:58.074Z,45.25
2018-09-29T08:33:25.308Z,45.63
2018-09-29T08:35:51.826Z,45.82
2018-09-29T08:38:18.904Z,42.90
2018-09-29T08:40:47.558Z,45.01
2018-09-29T08:43:14.580Z,44.51
2018-09-29T08:45:41.778Z,45.03
2018-09-29T08:48:08.572Z,45.64
2018-09-29T08:50:36.098Z,46.13
2018-09-29T08:53:03.360Z,46.57
2018-09-29T08:55:29.856Z,46.19
2018-09-29T08:57:57.493Z,45.75
2018-09-29T09:00:23.989Z,45.15
2018-09-29T09:02:50.544Z,45.36
2018-09-29T09:05:17.049Z,45.34
2018-09-29T09:07:44.047Z,45.52
2018-09-29T09:10:10.877Z,43.29
2018-09-29T09:12:37.381Z,44.56
2018-09-29T09:15:04.493Z,44.02
2018-09-29T09:17:31.079Z,43.73
2018-09-29T09:19:57.548Z,44.88
2018-09-29T09:22:24.321Z,42.93
2018-09-29T09:24:51.621Z,43.19
2018-09-29T09:27:19.422Z,42.42
2018-09-29T09:29:46.735Z,41.90
2018-09-29T09:32:14.121Z,41.06
2018-09-29T09:34:41.424Z,40.63
2018-09-29T09:37:07.925Z,41.65
2018-09-29T09:39:34.441Z,42.79
2018-09-29T09:42:01.494Z,41.99
2018-09-29T09:44:28.817Z,43.87
2018-09-29T09:46:56.122Z,41.77
2018-09-29T09:49:22.923Z,40.58
2018-09-29T09:51:49.525Z,41.98
2018-09-29T09:54:17.006Z,39.57
2018-09-29T09:56:43.614Z,37.97
2018-09-29T09:59:11.523Z,39.41
2018-09-29T10:01:38.555Z,39.62
2018-09-29T10:04:05.081Z,41.37
2018-09-29T10:06:31.826Z,37.88
2018-09-29T10:08:58.745Z,37.52
2018-09-29T10:11:26.022Z,36.01
2018-09-29T10:13:52.699Z,36.16
2018-09-29T10:16:23.965Z,36.43
2018-09-29T10:18:52.429Z,36.30
2018-09-29T10:21:20.085Z,38.57
2018-09-29T10:23:48.208Z,39.48
2018-09-29T10:26:16.183Z,38.54
2018-09-29T10:28:43.271Z,36.96
2018-09-29T10:31:10.440Z,36.46
2018-09-29T10:33:36.953Z,35.19
2018-09-29T10:36:04.890Z,35.96
2018-09-29T10:38:32.990Z,37.52
2018-09-29T10:41:00.170Z,35.30
2018-09-29T10:43:27.681Z,37.45
2018-09-29T10:45:54.182Z,36.17
2018-09-29T10:48:20.667Z,34.38
2018-09-29T10:50:47.730Z,36.32
2018-09-29T10:53:14.468Z,35.49
2018-09-29T10:55:41.077Z,34.46
2018-09-29T10:58:08.133Z,35.13
2018-09-29T11:00:35.282Z,34.82
2018-09-29T11:03:02.321Z,35.15
2018-09-29T11:05:28.886Z,34.74
2018-09-29T11:07:55.739Z,36.27
2018-09-29T11:10:22.971Z,35.05
2018-09-29T11:12:50.540Z,33.45
2018-09-29T11:15:17.467Z,36.98
2018-09-29T11:17:45.392Z,35.40
2018-09-29T11:20:11.850Z,34.75
2018-09-29T11:22:38.676Z,34.43
2018-09-29T11:25:05.179Z,34.38
2018-09-29T11:27:31.725Z,34.74
2018-09-29T11:30:01.460Z,34.84
2018-09-29T11:32:30.126Z,33.74
2018-09-29T11:34:56.624Z,35.52
2018-09-29T11:37:23.558Z,32.99
2018-09-29T11:39:50.126Z,33.26
2018-09-29T11:42:17.735Z,33.15
2018-09-29T11:44:44.922Z,33.70
2018-09-29T11:47:12.457Z,32.86
2018-09-29T11:49:39.128Z,32.76
2018-09-29T11:52:05.818Z,32.90
2018-09-29T11:54:32.332Z,32.42
2018-09-29T11:56:58.972Z,31.93
2018-09-29T11:59:26.747Z,32.90
2018-09-29T12:01:55.067Z,30.29
2018-09-29T12:04:21.816Z,29.94
2018-09-29T12:06:49.310Z,29.76
2018-09-29T12:09:15.810Z,31.15
2018-09-29T12:11:43.266Z,31.46
2018-09-29T12:14:10.009Z,32.17
2018-09-29T12:16:36.829Z,31.99
2018-09-29T12:19:04.120Z,32.15
2018-09-29T12:24:02.845Z,33.16
2018-09-29T12:26:30.185Z,31.87
2018-09-29T12:28:56.675Z,33.33
2018-09-29T12:31:24.195Z,34.25
2018-09-29T12:33:50.696Z,34.95
2018-09-29T12:36:17.407Z,35.72
2018-09-29T12:38:45.033Z,36.22
2018-09-29T12:41:11.655Z,34.75
2018-09-29T12:43:38.247Z,33.74
2018-09-29T12:46:05.039Z,33.86
2018-09-29T12:48:32.147Z,33.57
2018-09-29T12:51:00.081Z,32.37
2018-09-29T12:53:26.678Z,32.37
2018-09-29T12:55:53.173Z,33.27
2018-09-29T12:58:21.024Z,34.19
2018-09-29T13:00:47.510Z,34.14
2018-09-29T13:03:14.729Z,34.05
2018-09-29T13:05:42.078Z,33.52
2018-09-29T13:08:08.603Z,34.44
2018-09-29T13:10:35.985Z,35.60
2018-09-29T13:13:03.222Z,33.72
2018-09-29T13:15:30.978Z,33.58
2018-09-29T13:17:57.506Z,34.08
2018-09-29T13:20:25.262Z,34.17
2018-09-29T13:22:52.530Z,35.49
2018-09-29T13:25:19.166Z,35.48
2018-09-29T13:27:46.284Z,36.15
2018-09-29T13:30:15.228Z,35.14
2018-09-29T13:32:42.013Z,36.65
2018-09-29T13:35:08.687Z,35.75
2018-09-29T13:37:35.928Z,34.15
2018-09-29T13:40:03.641Z,32.34
2018-09-29T13:42:31.160Z,33.85
2018-09-29T13:44:58.850Z,33.58
2018-09-29T13:47:26.360Z,31.99
2018-09-29T13:49:53.049Z,31.83
2018-09-29T13:52:20.347Z,33.57
2018-09-29T13:54:47.546Z,34.28
2018-09-29T13:57:14.869Z,32.95
2018-09-29T13:59:41.647Z,32.74
2018-09-29T14:02:08.236Z,32.54
2018-09-29T14:04:36.157Z,33.33
2018-09-29T14:07:03.269Z,32.13
2018-09-29T14:09:30.449Z,32.84
2018-09-29T14:11:57.041Z,33.25
2018-09-29T14:14:23.618Z,32.69
2018-09-29T14:16:50.143Z,32.50
2018-09-29T14:19:16.854Z,31.51
2018-09-29T14:21:44.067Z,32.56
2018-09-29T14:24:11.699Z,32.50
2018-09-29T14:26:38.289Z,32.22
2018-09-29T14:29:05.824Z,33.48
2018-09-29T14:31:32.340Z,33.33
2018-09-29T14:33:59.336Z,32.04
2018-09-29T14:36:25.861Z,32.70
2018-09-29T14:38:52.455Z,34.21
2018-09-29T14:41:19.201Z,33.40
2018-09-29T14:43:45.929Z,33.65
2018-09-29T14:46:12.384Z,33.08
2018-09-29T14:48:39.026Z,33.27
2018-09-29T14:51:05.776Z,32.52
2018-09-29T14:53:32.729Z,33.46
2018-09-29T14:56:00.328Z,32.42
2018-09-29T14:58:27.313Z,33.27
2018-09-29T15:00:54.048Z,31.56
2018-09-29T15:03:21.109Z,31.09
2018-09-29T15:05:47.764Z,32.27
2018-09-29T15:08:14.332Z,33.25
2018-09-29T15:10:42.269Z,32.28
2018-09-29T15:13:09.574Z,31.90
2018-09-29T15:15:36.368Z,32.21
2018-09-29T15:18:03.650Z,32.02
2018-09-29T15:20:30.469Z,31.59
2018-09-29T15:22:58.232Z,31.08
2018-09-29T15:25:26.601Z,33.00
2018-09-29T15:27:53.228Z,32.81
2018-09-29T15:30:19.860Z,32.03
2018-09-29T15:32:46.599Z,31.89
2018-09-29T15:35:13.411Z,32.39
2018-09-29T15:37:40.316Z,32.87
2018-09-29T15:40:07.680Z,32.74
2018-09-29T15:42:34.195Z,33.49
2018-09-29T15:45:00.911Z,33.82
2018-09-29T15:47:27.600Z,33.35
2018-09-29T15:49:57.225Z,34.04
2018-09-29T15:52:24.323Z,34.14
2018-09-29T15:54:50.889Z,33.50
2018-09-29T15:57:18.498Z,33.44
2018-09-29T15:59:46.717Z,33.59
2018-09-29T16:02:13.489Z,33.88
2018-09-29T16:04:40.498Z,33.63
2018-09-29T16:07:09.909Z,33.32
2018-09-29T16:09:36.694Z,32.87
2018-09-29T16:12:03.599Z,33.35
2018-09-29T16:14:31.289Z,33.16
2018-09-29T16:16:59.021Z,34.52
2018-09-29T16:19:25.575Z,34.01
2018-09-29T16:21:52.929Z,33.82
2018-09-29T16:24:20.109Z,34.70
2018-09-29T16:26:46.729Z,34.40
2018-09-29T16:29:13.484Z,34.26
2018-09-29T16:31:40.527Z,34.80
2018-09-29T16:34:08.376Z,36.53
2018-09-29T16:36:36.942Z,34.62
2018-09-29T16:39:03.697Z,35.79
2018-09-29T16:41:31.990Z,36.50
2018-09-29T16:43:58.577Z,37.20
2018-09-29T16:46:25.345Z,37.86
2018-09-29T16:48:52.508Z,37.72
2018-09-29T16:51:19.278Z,38.62
2018-09-29T16:53:45.969Z,37.46
2018-09-29T16:56:13.582Z,39.39
2018-09-29T16:58:40.112Z,38.78
2018-09-29T17:01:06.874Z,39.20
2018-09-29T17:03:33.434Z,39.74
2018-09-29T17:06:00.727Z,40.43
2018-09-29T17:08:28.176Z,39.90
2018-09-29T17:10:55.673Z,40.52
2018-09-29T17:13:23.344Z,41.21
2018-09-29T17:15:50.133Z,41.69
2018-09-29T17:18:16.884Z,40.62
2018-09-29T17:20:43.641Z,41.57
2018-09-29T17:23:10.268Z,42.11
2018-09-29T17:25:38.729Z,42.03
2018-09-29T17:28:05.872Z,42.20
2018-09-29T17:30:33.079Z,43.00
2018-09-29T17:33:00.396Z,42.23
2018-09-29T17:35:27.715Z,43.02
2018-09-29T17:37:54.197Z,43.60
2018-09-29T17:40:20.896Z,43.50
2018-09-29T17:42:52.419Z,43.57
2018-09-29T17:45:19.742Z,44.54
2018-09-29T17:47:46.635Z,44.57
2018-09-29T17:50:13.788Z,45.66
2018-09-29T17:52:41.648Z,45.62
2018-09-29T17:57:41.602Z,45.81
2018-09-29T18:00:08.320Z,46.75
2018-09-29T18:02:34.956Z,47.10
2018-09-29T18:05:01.703Z,45.90
2018-09-29T18:07:28.227Z,46.10
2018-09-29T18:09:55.232Z,45.50
2018-09-29T18:12:22.430Z,46.47
2018-09-29T18:14:49.929Z,47.10
2018-09-29T18:17:17.212Z,46.89
2018-09-29T18:19:44.560Z,47.17
2018-09-29T18:22:11.815Z,47.75
2018-09-29T18:24:38.301Z,47.68
2018-09-29T18:27:05.011Z,48.11
2018-09-29T18:29:32.782Z,48.31
2018-09-29T18:31:59.303Z,47.57
2018-09-29T18:36:58.556Z,47.82
2018-09-29T18:39:25.214Z,48.39
2018-09-29T18:41:52.376Z,47.98
2018-09-29T18:44:21.209Z,48.71
2018-09-29T18:46:48.497Z,47.88
2018-09-29T18:49:15.156Z,48.69
2018-09-29T18:51:41.921Z,48.64
2018-09-29T18:54:08.674Z,49.25
2018-09-29T18:56:35.855Z,48.83
2018-09-29T18:59:02.447Z,49.52
2018-09-29T19:01:28.944Z,48.11
2018-09-29T19:03:56.217Z,48.48
2018-09-29T19:06:22.808Z,49.54
2018-09-29T19:08:49.952Z,49.50
2018-09-29T19:11:17.894Z,49.46
2018-09-29T19:13:44.997Z,49.62
2018-09-29T19:16:12.481Z,49.99
2018-09-29T19:18:39.149Z,49.67
2018-09-29T19:21:06.417Z,51.12
2018-09-29T19:23:33.094Z,50.98
2018-09-29T19:26:00.746Z,50.82
2018-09-29T19:28:27.402Z,50.77
2018-09-29T19:30:54.068Z,50.58
2018-09-29T19:33:20.699Z,50.61
2018-09-29T19:35:47.543Z,50.81
2018-09-29T19:38:14.329Z,51.25
2018-09-29T19:40:41.707Z,51.33
2018-09-29T19:43:08.897Z,50.21
2018-09-29T19:45:36.045Z,50.40
2018-09-29T19:48:03.299Z,51.68
2018-09-29T19:50:30.159Z,52.01
2018-09-29T19:52:56.652Z,52.71
2018-09-29T19:55:23.358Z,52.61
2018-09-29T19:57:50.533Z,52.74
2018-09-29T20:00:17.422Z,52.59
2018-09-29T20:02:46.024Z,52.78
2018-09-29T20:05:12.473Z,52.88
2018-09-29T20:07:38.996Z,52.33
2018-09-29T20:10:06.278Z,52.26
2018-09-29T20:12:34.462Z,52.72
2018-09-29T20:15:01.741Z,53.63
2018-09-29T20:17:28.257Z,53.08
2018-09-29T20:19:55.890Z,53.29
2018-09-29T20:22:22.385Z,53.04
2018-09-29T20:24:49.427Z,52.85
2018-09-29T20:27:16.712Z,53.02
2018-09-29T20:29:43.382Z,52.79
2018-09-29T20:32:09.955Z,52.64
2018-09-29T20:34:36.575Z,52.84
2018-09-29T20:37:03.600Z,53.22
2018-09-29T20:39:30.673Z,52.75
2018-09-29T20:41:57.408Z,53.64
2018-09-29T20:44:24.249Z,54.31
2018-09-29T20:46:50.896Z,53.81
2018-09-29T20:49:17.400Z,53.67
2018-09-29T20:51:44.179Z,54.46
2018-09-29T20:54:11.636Z,54.78
2018-09-29T20:56:38.514Z,54.24
2018-09-29T20:59:05.034Z,54.25
2018-09-29T21:01:31.698Z,53.83
2018-09-29T21:03:58.594Z,53.64
2018-09-29T21:06:25.852Z,53.69
2018-09-29T21:08:52.925Z,53.88
2018-09-29T21:11:21.337Z,54.55
2018-09-29T21:13:48.437Z,53.65
2018-09-29T21:16:15.989Z,54.17
2018-09-29T21:18:42.507Z,53.80
2018-09-29T21:21:09.033Z,53.60
2018-09-29T21:23:37.267Z,53.67
2018-09-29T21:26:04.011Z,54.78
2018-09-29T21:28:31.748Z,55.32
2018-09-29T21:30:59.203Z,55.52
2018-09-29T21:33:27.434Z,54.61
2018-09-29T21:35:54.118Z,54.61
2018-09-29T21:38:20.751Z,55.43
2018-09-29T21:40:48.397Z,55.90
2018-09-29T21:43:15.070Z,55.62
2018-09-29T21:45:44.682Z,56.42
2018-09-29T21:48:11.711Z,55.87
2018-09-29T21:50:38.511Z,55.81
2018-09-29T21:55:37.464Z,55.18
2018-09-29T21:58:04.101Z,55.14
2018-09-29T22:00:31.353Z,55.23
2018-09-29T22:05:31.261Z,57.07
2018-09-29T22:07:57.886Z,56.31
2018-09-29T22:10:24.362Z,56.71
2018-09-29T22:12:51.704Z,57.02
2018-09-29T22:15:18.957Z,57.34
2018-09-29T22:17:46.541Z,56.72
2018-09-29T22:20:13.315Z,57.58
2018-09-29T22:22:41.105Z,57.56
2018-09-29T22:25:08.188Z,56.94
2018-09-29T22:27:35.335Z,56.99
2018-09-29T22:30:02.032Z,56.37
2018-09-29T22:32:28.621Z,57.60
2018-09-29T22:34:55.153Z,57.69
2018-09-29T22:37:21.815Z,58.05
2018-09-29T22:39:49.198Z,58.28
2018-09-29T22:42:15.917Z,58.53
2018-09-29T22:44:43.566Z,58.56
2018-09-29T22:47:10.329Z,58.49
2018-09-29T22:49:38.174Z,58.02
2018-09-29T22:52:05.403Z,57.88
2018-09-29T22:54:32.591Z,57.63
2018-09-29T22:56:59.159Z,57.41
2018-09-29T22:59:25.672Z,57.85
2018-09-29T23:01:52.897Z,58.20
2018-09-29T23:04:20.369Z,58.68
2018-09-29T23:06:47.295Z,59.38
2018-09-29T23:09:15.308Z,58.65
2018-09-29T23:11:41.908Z,59.28
2018-09-29T23:14:08.564Z,59.26
2018-09-29T23:16:35.185Z,58.75
2018-09-29T23:19:02.502Z,59.42
2018-09-29T23:21:29.793Z,59.05
2018-09-29T23:23:56.445Z,59.07
2018-09-29T23:26:24.780Z,59.69
2018-09-29T23:28:51.594Z,60.77
2018-09-29T23:31:18.812Z,60.60
2018-09-29T23:33:49.073Z,60.68
2018-09-29T23:36:16.307Z,60.46
2018-09-29T23:38:43.098Z,59.81
2018-09-29T23:41:11.186Z,60.44
2018-09-29T23:43:37.698Z,60.17
2018-09-29T23:46:04.280Z,59.35
2018-09-29T23:48:31.623Z,60.10
2018-09-29T23:50:58.284Z,60.70
2018-09-29T23:53:25.774Z,61.17
2018-09-29T23:55:53.397Z,60.33
2018-09-29T23:58:20.642Z,60.30
